createdAt,value
2018-12-05T00:00:37.608Z,100003.69
2018-12-05T00:03:06.141Z,100061.72
2018-12-05T00:05:34.816Z,100066.26
2018-12-05T00:08:03.334Z,100073.31
2018-12-05T00:10:32.603Z,100071.23
2018-12-05T00:13:01.051Z,100066.20
2018-12-05T00:15:29.600Z,100069.00
2018-12-05T00:17:58.079Z,100070.91
2018-12-05T00:20:26.611Z,100070.31
2018-12-05T00:22:55.159Z,100068.28
2018-12-05T00:25:24.178Z,100063.58
2018-12-05T00:27:52.717Z,100063.05
2018-12-05T00:30:21.194Z,100069.50
2018-12-05T00:32:49.662Z,100065.84
2018-12-05T00:35:18.102Z,100062.33
2018-12-05T00:37:46.514Z,100065.45
2018-12-05T00:40:15.950Z,100067.77
2018-12-05T00:42:44.487Z,100069.48
2018-12-05T00:45:13.122Z,100073.26
2018-12-05T00:47:42.271Z,100065.54
2018-12-05T00:50:10.796Z,100068.23
2018-12-05T00:52:39.430Z,100048.39
2018-12-05T00:55:07.970Z,100046.21
2018-12-05T00:57:37.411Z,100041.34
2018-12-05T01:00:07.549Z,100042.59
2018-12-05T01:02:36.041Z,100044.13
2018-12-05T01:05:04.949Z,100049.91
2018-12-05T01:07:33.957Z,100048.77
2018-12-05T01:10:02.560Z,100050.05
2018-12-05T01:12:31.039Z,100062.17
2018-12-05T01:14:59.510Z,100071.56
2018-12-05T01:17:27.977Z,100067.30
2018-12-05T01:19:56.437Z,100062.06
2018-12-05T01:22:25.064Z,100059.97
2018-12-05T01:24:54.453Z,100068.88
2018-12-05T01:27:23.038Z,100060.16
2018-12-05T01:29:51.610Z,100045.16
2018-12-05T01:32:20.236Z,100042.00
2018-12-05T01:34:48.825Z,100042.56
2018-12-05T01:37:17.318Z,100042.18
2018-12-05T01:39:45.813Z,100039.32
2018-12-05T01:42:14.282Z,100041.08
2018-12-05T01:44:43.081Z,100053.80
2018-12-05T01:47:11.715Z,100049.92
2018-12-05T01:49:40.174Z,100055.97
2018-12-05T01:52:08.692Z,100058.45
2018-12-05T01:54:37.186Z,100046.65
2018-12-05T01:57:06.232Z,100040.59
2018-12-05T01:59:34.773Z,100036.39
2018-12-05T02:02:04.288Z,100038.94
2018-12-05T02:04:32.869Z,100032.83
2018-12-05T02:07:01.915Z,100027.52
2018-12-05T02:09:30.407Z,100027.78
2018-12-05T02:11:58.888Z,100038.55
2018-12-05T02:14:27.440Z,100031.95
2018-12-05T02:16:55.922Z,100034.80
2018-12-05T02:19:24.524Z,100040.83
2018-12-05T02:21:53.090Z,100037.22
2018-12-05T02:24:22.037Z,100037.82
2018-12-05T02:26:50.464Z,100027.52
2018-12-05T02:29:19.021Z,100031.37
2018-12-05T02:31:47.561Z,100039.09
2018-12-05T02:34:16.058Z,100040.61
2018-12-05T02:36:44.562Z,100051.37
2018-12-05T02:39:13.030Z,100048.98
2018-12-05T02:41:42.210Z,100040.35
2018-12-05T02:44:10.692Z,100042.45
2018-12-05T02:46:39.352Z,100043.06
2018-12-05T02:49:07.855Z,100030.41
2018-12-05T02:51:36.357Z,100033.81
2018-12-05T02:54:04.973Z,100032.38
2018-12-05T02:56:33.542Z,100025.37
2018-12-05T02:59:02.115Z,100031.00
2018-12-05T03:01:30.692Z,100026.09
2018-12-05T03:03:59.983Z,100023.53
2018-12-05T03:06:28.912Z,100011.31
2018-12-05T03:08:57.521Z,99997.75
2018-12-05T03:11:26.089Z,99994.88
2018-12-05T03:13:54.669Z,99997.34
2018-12-05T03:16:23.239Z,99995.11
2018-12-05T03:18:51.749Z,99985.37
2018-12-05T03:21:20.367Z,99987.43
2018-12-05T03:23:48.865Z,99998.28
2018-12-05T03:26:17.342Z,99990.92
2018-12-05T03:28:46.142Z,99990.38
2018-12-05T03:31:15.304Z,99995.80
2018-12-05T03:33:44.375Z,99990.36
2018-12-05T03:36:12.952Z,99987.38
2018-12-05T03:38:42.482Z,99973.22
2018-12-05T03:41:11.016Z,99968.86
2018-12-05T03:43:40.377Z,99972.09
2018-12-05T03:46:08.929Z,99972.86
2018-12-05T03:48:37.433Z,99968.44
2018-12-05T03:51:06.079Z,99983.38
2018-12-05T03:53:34.617Z,99977.59
2018-12-05T03:56:03.189Z,99984.14
2018-12-05T03:58:32.355Z,99989.23
2018-12-05T04:01:00.926Z,99994.42
2018-12-05T04:03:29.448Z,99989.95
2018-12-05T04:05:57.977Z,99983.78
2018-12-05T04:08:26.501Z,99993.06
2018-12-05T04:10:55.005Z,99991.47
2018-12-05T04:13:23.547Z,99987.05
2018-12-05T04:15:52.006Z,99984.53
2018-12-05T04:18:20.451Z,99988.06
2018-12-05T04:20:48.959Z,99986.08
2018-12-05T04:23:17.416Z,99979.56
2018-12-05T04:25:45.952Z,99975.20
2018-12-05T04:28:14.487Z,99978.56
2018-12-05T04:30:42.958Z,99982.67
2018-12-05T04:33:11.482Z,99993.16
2018-12-05T04:35:40.968Z,99986.38
2018-12-05T04:38:09.506Z,99985.80
2018-12-05T04:40:38.657Z,99991.15
2018-12-05T04:43:07.461Z,99988.81
2018-12-05T04:45:35.894Z,99984.53
2018-12-05T04:48:04.410Z,99982.29
2018-12-05T04:50:34.457Z,99986.84
2018-12-05T04:53:03.109Z,99980.88
2018-12-05T04:55:31.829Z,99985.66
2018-12-05T04:58:00.815Z,99986.64
2018-12-05T05:00:29.391Z,99998.51
2018-12-05T05:02:57.820Z,99994.36
2018-12-05T05:05:26.418Z,99998.63
2018-12-05T05:07:54.854Z,99993.53
2018-12-05T05:10:23.331Z,99994.98
2018-12-05T05:12:51.810Z,99997.73
2018-12-05T05:15:21.018Z,100003.69
2018-12-05T05:17:52.123Z,100007.91
2018-12-05T05:20:20.638Z,100015.01
2018-12-05T05:22:49.774Z,100012.50
2018-12-05T05:25:18.347Z,99817.08
2018-12-05T05:27:46.895Z,100006.10
2018-12-05T05:30:15.348Z,100008.67
2018-12-05T05:32:46.378Z,100002.02
2018-12-05T05:35:14.928Z,100002.47
2018-12-05T05:37:43.397Z,99997.42
2018-12-05T05:40:12.001Z,100007.95
2018-12-05T05:42:40.493Z,100003.30
2018-12-05T05:45:09.056Z,99997.42
2018-12-05T05:47:37.562Z,99999.80
2018-12-05T05:50:06.562Z,100000.63
2018-12-05T05:52:35.090Z,100002.70
2018-12-05T05:55:04.819Z,100010.51
2018-12-05T05:57:33.308Z,100010.14
2018-12-05T06:00:01.766Z,100005.80
2018-12-05T06:02:30.381Z,99997.77
2018-12-05T06:04:58.886Z,100006.63
2018-12-05T06:07:27.398Z,100004.44
2018-12-05T06:09:55.872Z,99997.48
2018-12-05T06:12:24.967Z,100007.80
2018-12-05T06:14:53.486Z,100017.30
2018-12-05T06:17:22.088Z,99988.11
2018-12-05T06:19:50.562Z,100013.37
2018-12-05T06:22:19.035Z,100014.20
2018-12-05T06:24:47.500Z,100019.09
2018-12-05T06:27:16.004Z,100017.45
2018-12-05T06:29:44.728Z,100015.98
2018-12-05T06:32:13.943Z,100016.81
2018-12-05T06:34:43.883Z,100021.55
2018-12-05T06:37:12.407Z,100020.74
2018-12-05T06:39:40.845Z,100012.69
2018-12-05T06:42:09.955Z,99994.67
2018-12-05T06:44:38.530Z,99986.73
2018-12-05T06:47:07.142Z,99991.17
2018-12-05T06:49:36.356Z,99997.97
2018-12-05T06:52:05.518Z,100002.33
2018-12-05T06:54:34.063Z,99999.49
2018-12-05T06:57:03.435Z,99996.75
2018-12-05T06:59:31.925Z,100003.31
2018-12-05T07:02:00.534Z,99993.91
2018-12-05T07:04:29.746Z,99995.22
2018-12-05T07:06:58.275Z,99992.24
2018-12-05T07:09:26.888Z,99993.35
2018-12-05T07:11:55.402Z,99996.41
2018-12-05T07:14:27.469Z,99998.58
2018-12-05T07:16:55.997Z,99990.01
2018-12-05T07:19:25.381Z,99986.98
2018-12-05T07:21:53.950Z,99997.27
2018-12-05T07:24:22.442Z,99996.08
2018-12-05T07:26:51.092Z,100009.70
2018-12-05T07:29:19.664Z,100012.12
2018-12-05T07:31:49.070Z,100022.52
2018-12-05T07:34:17.800Z,100015.98
2018-12-05T07:36:46.683Z,100020.46
2018-12-05T07:39:15.120Z,100019.80
2018-12-05T07:41:43.670Z,100023.25
2018-12-05T07:44:12.168Z,100015.92
2018-12-05T07:46:40.764Z,100019.86
2018-12-05T07:49:09.293Z,100020.99
2018-12-05T07:51:37.751Z,100021.45
2018-12-05T07:54:06.287Z,100020.09
2018-12-05T07:56:34.782Z,100024.48
2018-12-05T07:59:03.242Z,100022.52
2018-12-05T08:01:31.775Z,100024.89
2018-12-05T08:04:00.236Z,100020.09
2018-12-05T08:06:29.492Z,100025.28
2018-12-05T08:08:57.985Z,99980.41
2018-12-05T08:11:26.592Z,100022.24
2018-12-05T08:13:55.110Z,100023.26
2018-12-05T08:16:23.630Z,100027.34
2018-12-05T08:18:52.757Z,100026.56
2018-12-05T08:21:22.005Z,100032.21
2018-12-05T08:23:51.269Z,100028.67
2018-12-05T08:26:19.762Z,100026.66
2018-12-05T08:28:48.256Z,100031.38
2018-12-05T08:31:16.828Z,100028.13
2018-12-05T08:33:45.363Z,100023.36
2018-12-05T08:36:13.990Z,100010.39
2018-12-05T08:38:42.718Z,100014.28
2018-12-05T08:41:12.038Z,100005.08
2018-12-05T08:43:40.749Z,100013.25
2018-12-05T08:46:09.354Z,100021.38
2018-12-05T08:48:37.917Z,100024.71
2018-12-05T08:51:06.524Z,100021.48
2018-12-05T08:53:35.073Z,100013.59
2018-12-05T08:56:03.998Z,100015.03
2018-12-05T08:58:32.646Z,99912.47
2018-12-05T09:01:01.294Z,100006.50
2018-12-05T09:03:30.054Z,100014.52
2018-12-05T09:05:58.976Z,100009.38
2018-12-05T09:08:27.633Z,100008.66
2018-12-05T09:10:56.862Z,100006.28
2018-12-05T09:13:25.717Z,100011.36
2018-12-05T09:15:54.362Z,100002.94
2018-12-05T09:18:22.998Z,100004.67
2018-12-05T09:20:51.477Z,100000.77
2018-12-05T09:23:20.918Z,100001.61
2018-12-05T09:25:49.551Z,99995.93
2018-12-05T09:28:18.097Z,99990.61
2018-12-05T09:30:46.729Z,99986.45
2018-12-05T09:33:15.265Z,99983.23
2018-12-05T09:35:44.211Z,99982.09
2018-12-05T09:38:12.745Z,99979.20
2018-12-05T09:40:41.295Z,99979.50
2018-12-05T09:43:09.881Z,99974.09
2018-12-05T09:45:38.427Z,99972.73
2018-12-05T09:48:11.633Z,99976.77
2018-12-05T09:51:12.331Z,99977.71
2018-12-05T09:58:27.505Z,99980.72
2018-12-05T10:00:56.761Z,99975.63
2018-12-05T10:03:25.462Z,99974.45
2018-12-05T10:05:54.558Z,99970.70
2018-12-05T10:08:23.111Z,99957.64
2018-12-05T10:14:14.252Z,99952.58
2018-12-05T10:19:31.438Z,99951.36
2018-12-05T10:34:08.552Z,99929.16
2018-12-05T10:36:54.132Z,99933.37
2018-12-05T10:39:47.969Z,99930.52
2018-12-05T10:42:17.270Z,99934.45
2018-12-05T10:44:45.779Z,99924.00
2018-12-05T10:47:14.358Z,99924.04
2018-12-05T10:49:44.013Z,99915.88
2018-12-05T10:52:12.491Z,99910.00
2018-12-05T10:54:41.074Z,99912.27
2018-12-05T10:57:09.563Z,99908.39
2018-12-05T10:59:38.197Z,99905.38
2018-12-05T11:02:11.801Z,99907.15
2018-12-05T11:04:45.582Z,99901.67
2018-12-05T11:07:19.346Z,99899.62
2018-12-05T11:09:53.018Z,99898.95
2018-12-05T11:12:26.614Z,99898.21
2018-12-05T11:15:01.274Z,99903.20
2018-12-05T11:17:35.124Z,99898.59
2018-12-05T11:20:09.052Z,99895.84
2018-12-05T11:22:43.618Z,99886.90
2018-12-05T11:25:17.066Z,99882.55
2018-12-05T11:27:45.869Z,99876.80
2018-12-05T11:30:14.728Z,99874.13
2018-12-05T11:32:43.280Z,99870.23
2018-12-05T11:35:12.015Z,99856.35
2018-12-05T11:37:40.754Z,99852.02
2018-12-05T11:40:10.455Z,99841.45
2018-12-05T11:42:39.035Z,99838.09
2018-12-05T11:45:07.673Z,99839.23
2018-12-05T11:47:36.191Z,99833.53
2018-12-05T11:50:04.997Z,99830.66
2018-12-05T11:52:33.542Z,99825.68
2018-12-05T11:55:02.132Z,99823.98
2018-12-05T11:57:33.041Z,99812.42
2018-12-05T12:00:01.646Z,99815.80
2018-12-05T12:02:30.086Z,99821.59
2018-12-05T12:04:58.628Z,99822.17
2018-12-05T12:07:27.158Z,99814.65
2018-12-05T12:09:56.967Z,99814.63
2018-12-05T12:12:30.883Z,99813.18
2018-12-05T12:15:00.263Z,99810.93
2018-12-05T12:17:29.662Z,99812.13
2018-12-05T12:19:58.243Z,99811.29
2018-12-05T12:22:27.830Z,99804.64
2018-12-05T12:24:57.828Z,99803.09
2018-12-05T12:27:26.571Z,99801.05
2018-12-05T12:29:56.017Z,99793.72
2018-12-05T12:32:24.710Z,99784.45
2018-12-05T12:34:53.306Z,99781.64
2018-12-05T12:37:22.032Z,99772.48
2018-12-05T12:39:51.176Z,99778.34
2018-12-05T12:42:20.573Z,99774.06
2018-12-05T12:44:50.631Z,99773.75
2018-12-05T12:47:19.307Z,99770.03
2018-12-05T12:49:48.528Z,99758.69
2018-12-05T12:52:17.715Z,99756.67
2018-12-05T12:54:46.175Z,99758.92
2018-12-05T12:57:14.652Z,99754.86
2018-12-05T12:59:43.976Z,99742.79
2018-12-05T13:02:13.455Z,99735.58
2018-12-05T13:04:42.261Z,99731.48
2018-12-05T13:07:10.988Z,99722.49
2018-12-05T13:09:39.979Z,99715.78
2018-12-05T13:12:18.654Z,99703.62
2018-12-05T13:14:47.645Z,99697.11
2018-12-05T13:17:18.353Z,99693.14
2018-12-05T13:19:49.107Z,99688.41
2018-12-05T13:22:17.706Z,99683.88
2018-12-05T13:24:51.409Z,99675.48
2018-12-05T13:27:22.802Z,99674.45
2018-12-05T13:29:51.384Z,99673.36
2018-12-05T13:32:20.284Z,99632.11
2018-12-05T13:34:53.133Z,99663.85
2018-12-05T13:37:25.591Z,99661.87
2018-12-05T13:39:56.899Z,99652.77
2018-12-05T13:42:28.551Z,99654.78
2018-12-05T13:45:00.801Z,99658.02
2018-12-05T13:47:31.999Z,99657.75
2018-12-05T13:50:00.597Z,99664.30
2018-12-05T13:52:32.445Z,99660.85
2018-12-05T13:55:02.175Z,99653.77
2018-12-05T13:57:32.355Z,99653.52
2018-12-05T14:00:00.995Z,99647.54
2018-12-05T14:02:32.845Z,99647.66
2018-12-05T14:05:06.673Z,99643.37
2018-12-05T14:07:35.302Z,99649.67
2018-12-05T14:10:07.567Z,99657.70
2018-12-05T14:12:40.865Z,99658.65
2018-12-05T14:15:10.619Z,99658.52
2018-12-05T14:17:39.151Z,99655.20
2018-12-05T14:20:08.918Z,99646.78
2018-12-05T14:22:37.384Z,99646.62
2018-12-05T14:25:07.559Z,99642.97
2018-12-05T14:27:36.790Z,99642.08
2018-12-05T14:30:06.162Z,99632.29
2018-12-05T14:32:35.313Z,99630.11
2018-12-05T14:35:03.785Z,99625.40
2018-12-05T14:37:32.365Z,99620.55
2018-12-05T14:40:01.576Z,99623.47
2018-12-05T14:42:30.087Z,99628.55
2018-12-05T14:44:58.587Z,99629.92
2018-12-05T14:47:27.123Z,99623.98
2018-12-05T14:49:55.700Z,99635.66
2018-12-05T14:52:24.230Z,99630.43
2018-12-05T14:54:53.094Z,99623.20
2018-12-05T14:57:22.199Z,99615.13
2018-12-05T14:59:50.708Z,99609.50
2018-12-05T15:02:19.336Z,99602.81
2018-12-05T15:04:47.900Z,99614.97
2018-12-05T15:07:16.453Z,99610.28
2018-12-05T15:09:44.899Z,99605.69
2018-12-05T15:12:13.373Z,99571.28
2018-12-05T15:14:42.017Z,99602.13
2018-12-05T15:17:11.133Z,99600.48
2018-12-05T15:19:39.708Z,99601.86
2018-12-05T15:22:08.813Z,99602.05
2018-12-05T15:24:37.600Z,99601.00
2018-12-05T15:27:06.888Z,99600.04
2018-12-05T15:29:35.459Z,99601.50
2018-12-05T15:32:04.676Z,99591.58
2018-12-05T15:34:33.288Z,99593.17
2018-12-05T15:37:01.937Z,99589.58
2018-12-05T15:39:30.629Z,99592.67
2018-12-05T15:41:59.204Z,99572.44
2018-12-05T15:44:27.715Z,99545.14
2018-12-05T15:46:56.293Z,99575.30
2018-12-05T15:49:24.942Z,99576.75
2018-12-05T15:51:53.463Z,99576.39
2018-12-05T15:54:23.981Z,99575.89
2018-12-05T15:56:52.830Z,99565.33
2018-12-05T15:59:21.407Z,99556.47
2018-12-05T16:01:50.092Z,99545.33
2018-12-05T16:04:18.644Z,99543.37
2018-12-05T16:06:48.250Z,99543.00
2018-12-05T16:09:16.955Z,99528.87
2018-12-05T16:11:46.051Z,99522.13
2018-12-05T16:14:14.859Z,99520.47
2018-12-05T16:16:43.338Z,99522.05
2018-12-05T16:19:12.440Z,99523.68
2018-12-05T16:21:42.035Z,99518.82
2018-12-05T16:24:12.369Z,99527.31
2018-12-05T16:26:41.234Z,99526.73
2018-12-05T16:29:09.850Z,99516.64
2018-12-05T16:31:38.346Z,99513.89
2018-12-05T16:34:08.543Z,99513.05
2018-12-05T16:36:37.151Z,99508.41
2018-12-05T16:39:07.650Z,99507.04
2018-12-05T16:41:36.165Z,99505.35
2018-12-05T16:44:12.583Z,99504.63
2018-12-05T16:46:35.995Z,99506.73
2018-12-05T16:49:04.509Z,99506.17
2018-12-05T16:51:33.291Z,99512.67
2018-12-05T16:54:01.999Z,99511.36
2018-12-05T16:56:32.518Z,99504.50
2018-12-05T16:59:02.133Z,99508.50
2018-12-05T17:01:33.120Z,99518.37
2018-12-05T17:04:02.679Z,99510.12
2018-12-05T17:06:31.659Z,99506.50
2018-12-05T17:09:01.477Z,99506.81
2018-12-05T17:11:31.685Z,99512.00
2018-12-05T17:14:01.520Z,99518.01
2018-12-05T17:16:30.103Z,99511.97
2018-12-05T17:18:59.385Z,99519.30
2018-12-05T17:21:28.396Z,99505.75
2018-12-05T17:23:57.142Z,99516.72
2018-12-05T17:26:25.746Z,99515.86
2018-12-05T17:28:54.715Z,99515.22
2018-12-05T17:31:23.728Z,99513.66
2018-12-05T17:33:52.343Z,99499.19
2018-12-05T17:36:21.276Z,99479.45
2018-12-05T17:38:49.919Z,99451.69
2018-12-05T17:41:18.482Z,99451.51
2018-12-05T17:43:47.084Z,99454.64
2018-12-05T17:46:15.732Z,99447.91
2018-12-05T17:48:44.314Z,99459.45
2018-12-05T17:51:14.425Z,99471.00
2018-12-05T17:53:44.559Z,99465.61
2018-12-05T17:56:13.344Z,99461.66
2018-12-05T17:58:42.130Z,99455.95
2018-12-05T18:01:10.732Z,99451.01
2018-12-05T18:03:39.364Z,99447.48
2018-12-05T18:06:07.984Z,99443.63
2018-12-05T18:08:36.752Z,99440.98
2018-12-05T18:11:05.790Z,99442.67
2018-12-05T18:13:34.468Z,99441.23
2018-12-05T18:16:03.102Z,99425.77
2018-12-05T18:18:31.847Z,99432.53
2018-12-05T18:21:00.643Z,99422.37
2018-12-05T18:23:30.375Z,99426.06
2018-12-05T18:25:59.436Z,99427.14
2018-12-05T18:29:53.243Z,99427.67
2018-12-05T18:32:22.246Z,99435.94
2018-12-05T18:34:50.848Z,99440.12
2018-12-05T18:37:19.464Z,99412.59
2018-12-05T18:39:48.029Z,99365.86
2018-12-05T18:42:16.697Z,99362.59
2018-12-05T18:44:45.448Z,99362.71
2018-12-05T18:47:14.459Z,99385.45
2018-12-05T18:49:43.802Z,99404.48
2018-12-05T18:52:13.635Z,99421.78
2018-12-05T18:54:42.970Z,99414.28
2018-12-05T18:57:11.526Z,99399.84
2018-12-05T18:59:40.072Z,99373.99
2018-12-05T19:02:09.533Z,99366.52
2018-12-05T19:04:38.203Z,99375.35
2018-12-05T19:07:08.022Z,99376.49
2018-12-05T19:09:36.670Z,99378.76
2018-12-05T19:12:05.501Z,99384.45
2018-12-05T19:14:40.269Z,99374.80
2018-12-05T19:17:10.161Z,99363.82
2018-12-05T19:19:38.817Z,99357.88
2018-12-05T19:22:07.889Z,99353.63
2018-12-05T19:24:36.516Z,99284.63
2018-12-05T19:27:05.310Z,99353.87
2018-12-05T19:29:34.370Z,99356.59
2018-12-05T19:32:02.862Z,99355.41
2018-12-05T19:34:31.715Z,99353.09
2018-12-05T19:37:00.228Z,99361.36
2018-12-05T19:39:28.805Z,99353.50
2018-12-05T19:41:57.363Z,99353.22
2018-12-05T19:44:27.101Z,99357.05
2018-12-05T19:46:55.855Z,99349.60
2018-12-05T19:49:24.422Z,99355.38
2018-12-05T19:51:53.020Z,99352.05
2018-12-05T19:54:22.345Z,99352.19
2018-12-05T19:56:55.283Z,99353.91
2018-12-05T19:59:23.873Z,99351.51
2018-12-05T20:01:53.059Z,99339.23
2018-12-05T20:04:22.981Z,99344.28
2018-12-05T20:06:51.851Z,99331.06
2018-12-05T20:09:20.567Z,99322.34
2018-12-05T20:11:49.142Z,99327.43
2018-12-05T20:14:22.956Z,99330.75
2018-12-05T20:16:51.673Z,99328.52
2018-12-05T20:19:21.531Z,99331.75
2018-12-05T20:21:50.159Z,99338.88
2018-12-05T20:24:18.895Z,99330.03
2018-12-05T20:26:48.146Z,99328.80
2018-12-05T20:29:16.671Z,99326.17
2018-12-05T20:31:45.926Z,99324.58
2018-12-05T20:34:15.342Z,99315.80
2018-12-05T20:36:44.022Z,99320.53
2018-12-05T20:39:12.864Z,99319.53
2018-12-05T20:41:42.018Z,99320.58
2018-12-05T20:44:11.304Z,99318.67
2018-12-05T20:46:40.007Z,99317.95
2018-12-05T20:49:08.765Z,99310.05
2018-12-05T20:51:38.286Z,99303.00
2018-12-05T20:54:06.886Z,99298.77
2018-12-05T20:56:35.513Z,99295.69
2018-12-05T20:59:04.926Z,99306.50
2018-12-05T21:01:33.624Z,99300.81
2018-12-05T21:04:02.283Z,99302.59
2018-12-05T21:06:30.876Z,99304.42
2018-12-05T21:08:59.524Z,99302.70
2018-12-05T21:11:28.196Z,99301.05
2018-12-05T21:13:57.637Z,99289.25
2018-12-05T21:16:26.419Z,99290.75
2018-12-05T21:18:55.753Z,99292.39
2018-12-05T21:21:24.534Z,99293.56
2018-12-05T21:23:53.256Z,99294.64
2018-12-05T21:26:21.876Z,99293.28
2018-12-05T21:28:51.197Z,99288.86
2018-12-05T21:31:21.011Z,99281.03
2018-12-05T21:33:50.352Z,99282.36
2018-12-05T21:36:19.135Z,99278.64
2018-12-05T21:38:48.494Z,99276.20
2018-12-05T21:41:18.251Z,99282.00
2018-12-05T21:43:46.887Z,99276.06
2018-12-05T21:46:16.043Z,99279.22
2018-12-05T21:48:44.835Z,99280.05
2018-12-05T21:51:13.598Z,99277.99
2018-12-05T21:53:42.553Z,99278.96
2018-12-05T21:56:11.207Z,99270.22
2018-12-05T21:58:41.925Z,99263.88
2018-12-05T22:01:10.473Z,99263.94
2018-12-05T22:03:38.979Z,99269.31
2018-12-05T22:06:07.503Z,99259.06
2018-12-05T22:08:36.164Z,99252.56
2018-12-05T22:11:04.687Z,99250.09
2018-12-05T22:13:33.377Z,99246.62
2018-12-05T22:16:02.196Z,99241.86
2018-12-05T22:18:30.802Z,99244.65
2018-12-05T22:20:59.331Z,99208.45
2018-12-05T22:23:27.838Z,99214.57
2018-12-05T22:25:56.348Z,99249.25
2018-12-05T22:28:24.935Z,99251.53
2018-12-05T22:30:54.652Z,99243.09
2018-12-05T22:33:24.345Z,99248.05
2018-12-05T22:35:52.905Z,99232.91
2018-12-05T22:38:21.609Z,99228.86
2018-12-05T22:40:50.196Z,99221.55
2018-12-05T22:43:18.746Z,99209.70
2018-12-05T22:45:47.269Z,99196.87
2018-12-05T22:48:15.776Z,99190.59
2018-12-05T22:50:44.314Z,99194.09
2018-12-05T22:53:12.869Z,99180.75
2018-12-05T22:55:41.392Z,99181.52
2018-12-05T22:58:10.257Z,99179.94
2018-12-05T23:00:41.980Z,99173.08
2018-12-05T23:03:10.536Z,99170.63
2018-12-05T23:05:39.041Z,99166.70
2018-12-05T23:08:08.355Z,99153.85
2018-12-05T23:10:36.878Z,99147.98
2018-12-05T23:13:05.353Z,99153.08
2018-12-05T23:15:33.957Z,99156.18
2018-12-05T23:18:02.443Z,99177.73
2018-12-05T23:20:30.914Z,99216.20
2018-12-05T23:23:00.115Z,99194.80
2018-12-05T23:25:28.591Z,99198.91
2018-12-05T23:27:57.503Z,99188.30
2018-12-05T23:30:26.066Z,99186.39
2018-12-05T23:32:54.637Z,99193.58
2018-12-05T23:35:23.144Z,99194.19
2018-12-05T23:37:51.742Z,99190.91
2018-12-05T23:40:20.234Z,99184.52
2018-12-05T23:42:49.514Z,99179.52
2018-12-05T23:45:18.482Z,99188.23
2018-12-05T23:47:47.061Z,99172.31
2018-12-05T23:50:15.598Z,99173.73
2018-12-05T23:52:44.061Z,99175.72
2018-12-05T23:55:12.635Z,99165.91
2018-12-05T23:57:41.896Z,99151.52
